createdAt,value
2022-10-03T00:03:25.063Z,91.84
2022-10-03T00:08:56.946Z,90.96
2022-10-03T00:14:28.539Z,91.08
2022-10-03T00:20:00.342Z,91.59
2022-10-03T00:25:32.286Z,92.09
2022-10-03T00:31:04.091Z,92.25
2022-10-03T00:42:05.365Z,92.69
2022-10-03T00:47:37.039Z,92.18
2022-10-03T00:53:08.855Z,92.35
2022-10-03T00:58:40.600Z,93.26
2022-10-03T01:04:12.617Z,93.19
2022-10-03T01:09:44.430Z,93.30
2022-10-03T01:15:16.316Z,92.67
2022-10-03T01:20:48.140Z,92.60
2022-10-03T01:26:19.920Z,92.55
2022-10-03T01:31:51.639Z,93.10
2022-10-03T01:37:23.574Z,93.38
2022-10-03T01:42:55.200Z,93.67
2022-10-03T01:48:27.060Z,93.56
2022-10-03T01:53:58.960Z,93.90
2022-10-03T01:59:30.439Z,93.84
2022-10-03T02:05:02.512Z,94.03
2022-10-03T02:10:34.364Z,94.22
2022-10-03T02:16:06.036Z,94.28
2022-10-03T02:21:37.911Z,94.35
2022-10-03T02:32:39.081Z,94.55
2022-10-03T02:38:10.807Z,94.45
2022-10-03T02:43:42.593Z,94.35
2022-10-03T02:49:14.345Z,94.22
2022-10-03T03:00:15.660Z,94.27
2022-10-03T03:05:47.386Z,94.31
2022-10-03T03:11:19.175Z,94.22
2022-10-03T03:16:50.895Z,94.28
2022-10-03T03:22:22.810Z,94.43
2022-10-03T03:27:54.792Z,94.69
2022-10-03T03:33:26.601Z,94.66
2022-10-03T03:38:58.349Z,94.59
2022-10-03T03:44:30.358Z,95.04
2022-10-03T03:50:01.856Z,94.90
2022-10-03T03:55:33.583Z,94.85
2022-10-03T04:01:05.708Z,94.87
2022-10-03T04:06:37.289Z,94.97
2022-10-03T04:17:38.717Z,95.10
2022-10-03T04:23:10.178Z,95.09
2022-10-03T04:28:42.063Z,95.08
2022-10-03T04:34:13.985Z,95.00
2022-10-03T04:39:45.708Z,95.15
2022-10-03T04:45:17.279Z,95.11
2022-10-03T04:56:18.241Z,95.26
2022-10-03T04:58:30.763Z,95.11
2022-10-03T05:04:02.085Z,95.26
2022-10-03T05:11:55.369Z,95.15
2022-10-03T05:17:26.697Z,95.29
2022-10-03T05:28:28.219Z,95.30
2022-10-03T05:33:59.424Z,95.40
2022-10-03T05:39:30.772Z,95.24
2022-10-03T05:45:02.255Z,95.53
2022-10-03T05:50:33.595Z,95.82
2022-10-03T05:56:05.076Z,95.24
2022-10-03T06:07:06.041Z,94.54
2022-10-03T06:12:37.773Z,94.11
2022-10-03T06:18:09.470Z,93.95
2022-10-03T06:23:40.946Z,93.69
2022-10-03T06:29:13.194Z,93.83
2022-10-03T06:34:44.572Z,93.60
2022-10-03T06:40:16.039Z,93.43
2022-10-03T06:56:50.071Z,89.12
2022-10-03T07:02:20.519Z,89.82
2022-10-03T07:07:51.844Z,89.93
2022-10-03T07:18:54.996Z,89.37
2022-10-03T07:24:26.289Z,89.00
2022-10-03T07:29:57.584Z,88.74
2022-10-03T07:35:28.766Z,88.46
2022-10-03T07:41:00.213Z,89.08
2022-10-03T07:46:31.620Z,89.00
2022-10-03T07:52:02.809Z,89.04
2022-10-03T07:57:34.249Z,89.03
2022-10-03T08:03:05.692Z,89.40
2022-10-03T08:08:39.441Z,89.54
2022-10-03T08:19:42.392Z,87.87
2022-10-03T08:36:16.453Z,86.28
2022-10-03T08:41:47.592Z,85.74
2022-10-03T08:49:39.627Z,85.21
2022-10-03T09:00:42.408Z,83.20
2022-10-03T09:06:13.726Z,83.33
2022-10-03T09:11:45.244Z,81.22
2022-10-03T09:22:46.195Z,78.83
2022-10-03T09:28:19.164Z,79.83
2022-10-03T09:33:48.700Z,79.50
2022-10-03T09:39:20.150Z,79.50
2022-10-03T09:44:51.525Z,79.18
2022-10-03T09:50:23.237Z,78.48
2022-10-03T09:55:54.509Z,76.87
2022-10-03T10:01:25.914Z,76.21
2022-10-03T10:06:57.192Z,75.10
2022-10-03T10:12:28.463Z,75.01
2022-10-03T10:17:59.911Z,74.78
2022-10-03T10:23:31.169Z,73.06
2022-10-03T10:29:02.536Z,76.38
2022-10-03T10:34:33.856Z,72.31
2022-10-03T10:40:05.047Z,73.81
2022-10-03T10:45:36.330Z,71.97
2022-10-03T10:51:07.770Z,70.78
2022-10-03T10:56:39.499Z,68.42
2022-10-03T11:07:40.305Z,68.65
2022-10-03T11:13:11.911Z,71.43
2022-10-03T11:18:43.077Z,67.51
2022-10-03T11:24:14.439Z,69.78
2022-10-03T11:29:45.798Z,69.99
2022-10-03T11:35:17.064Z,68.38
2022-10-03T11:40:48.439Z,67.04
2022-10-03T11:46:22.541Z,65.74
2022-10-03T11:51:53.975Z,68.48
2022-10-03T12:02:58.791Z,69.22
2022-10-03T12:08:30.082Z,69.01
2022-10-03T12:14:01.296Z,69.04
2022-10-03T12:19:32.914Z,70.27
2022-10-03T12:25:04.387Z,68.87
2022-10-03T12:30:35.723Z,66.87
2022-10-03T12:36:07.112Z,66.64
2022-10-03T12:41:38.770Z,65.00
2022-10-03T12:52:41.733Z,67.20
2022-10-03T12:58:13.537Z,68.93
2022-10-03T13:03:45.075Z,69.63
2022-10-03T13:09:16.463Z,69.89
2022-10-03T13:14:47.647Z,68.64
2022-10-03T13:20:19.429Z,69.51
2022-10-03T13:25:50.889Z,69.17
2022-10-03T13:31:22.377Z,67.38
2022-10-03T13:36:53.535Z,65.59
2022-10-03T13:42:24.822Z,65.22
2022-10-03T13:53:25.632Z,66.91
2022-10-03T13:58:57.483Z,66.75
2022-10-03T14:04:28.680Z,67.72
2022-10-03T14:10:01.972Z,67.53
2022-10-03T14:15:33.431Z,65.69
2022-10-03T14:23:26.061Z,67.91
2022-10-03T14:34:28.856Z,67.78
2022-10-03T14:40:00.269Z,67.23
2022-10-03T14:45:32.012Z,67.29
2022-10-03T14:51:03.378Z,67.82
2022-10-03T14:56:34.825Z,67.21
2022-10-03T15:02:08.990Z,67.19
2022-10-03T15:07:40.717Z,67.63
2022-10-03T15:13:12.428Z,67.05
2022-10-03T15:18:43.897Z,67.44
2022-10-03T15:24:15.625Z,67.89
2022-10-03T15:29:47.310Z,67.27
2022-10-03T15:35:18.786Z,67.65
2022-10-03T15:40:50.147Z,67.92
2022-10-03T15:48:46.642Z,67.94
2022-10-03T15:54:13.481Z,68.15
2022-10-03T15:59:46.662Z,68.83
2022-10-03T16:05:18.180Z,69.09
2022-10-03T16:10:49.589Z,68.88
2022-10-03T16:16:21.344Z,68.58
2022-10-03T16:21:52.726Z,68.85
2022-10-03T16:27:23.927Z,69.93
2022-10-03T16:32:55.478Z,70.71
2022-10-03T16:43:56.549Z,71.82
2022-10-03T16:49:28.003Z,71.82
2022-10-03T16:54:59.775Z,72.25
2022-10-03T17:00:31.529Z,72.79
2022-10-03T17:06:03.440Z,72.96
2022-10-03T17:17:03.746Z,73.18
2022-10-03T17:22:35.447Z,74.00
2022-10-03T17:28:06.810Z,73.90
2022-10-03T17:33:38.096Z,76.14
2022-10-03T17:39:09.277Z,77.73
2022-10-03T17:44:44.103Z,78.83
2022-10-03T17:50:11.986Z,79.58
2022-10-03T17:55:43.339Z,79.84
2022-10-03T18:06:44.195Z,81.25
2022-10-03T18:12:15.532Z,80.91
2022-10-03T18:17:46.997Z,81.83
2022-10-03T18:23:36.718Z,81.94
2022-10-03T18:28:50.137Z,82.27
2022-10-03T18:34:21.407Z,82.60
2022-10-03T18:39:54.600Z,82.71
2022-10-03T18:45:24.149Z,82.95
2022-10-03T18:50:55.538Z,83.06
2022-10-03T18:56:27.298Z,83.47
2022-10-03T19:07:28.100Z,84.99
2022-10-03T19:12:59.545Z,84.49
2022-10-03T19:18:31.407Z,84.36
2022-10-03T19:24:03.272Z,84.13
2022-10-03T19:29:34.931Z,84.83
2022-10-03T19:35:06.349Z,84.97
2022-10-03T19:40:37.721Z,85.33
2022-10-03T19:46:09.533Z,85.38
2022-10-03T19:51:41.060Z,85.29
2022-10-03T19:57:12.211Z,85.66
2022-10-03T20:02:44.058Z,85.66
2022-10-03T20:08:15.730Z,85.61
2022-10-03T20:13:47.432Z,86.01
2022-10-03T20:19:18.707Z,86.22
2022-10-03T20:24:50.112Z,85.89
2022-10-03T20:30:21.376Z,86.14
2022-10-03T20:35:52.591Z,86.45
2022-10-03T20:41:23.999Z,86.47
2022-10-03T20:46:55.279Z,86.71
2022-10-03T20:52:26.554Z,86.89
2022-10-03T20:57:58.129Z,87.02
2022-10-03T21:03:29.806Z,86.89
2022-10-03T21:20:03.828Z,87.42
2022-10-03T21:25:35.729Z,87.70
2022-10-03T21:31:07.167Z,88.04
2022-10-03T21:36:39.138Z,88.08
2022-10-03T21:42:10.786Z,87.93
2022-10-03T21:47:42.462Z,87.91
2022-10-03T21:53:14.266Z,88.49
2022-10-03T21:58:45.981Z,87.67
2022-10-03T22:09:49.562Z,88.15
2022-10-03T22:20:52.948Z,88.41
2022-10-03T22:26:24.568Z,88.59
2022-10-03T22:31:56.377Z,88.82
2022-10-03T22:37:28.094Z,88.72
2022-10-03T22:42:59.852Z,88.85
2022-10-03T22:48:31.712Z,88.85
2022-10-03T22:54:03.399Z,86.79
2022-10-03T22:59:35.165Z,87.80
2022-10-03T23:10:38.727Z,88.69
2022-10-03T23:16:10.765Z,89.05
2022-10-03T23:21:42.401Z,88.86
2022-10-03T23:27:13.991Z,89.22
2022-10-03T23:32:45.702Z,89.64
2022-10-03T23:43:49.054Z,89.55
2022-10-03T23:49:21.030Z,88.92
2022-10-03T23:54:52.820Z,87.78
